createdAt,value
2019-02-05T00:00:37.579Z,11.83
2019-02-05T00:06:02.739Z,11.07
2019-02-05T00:08:29.099Z,12.43
2019-02-05T00:10:55.697Z,11.53
2019-02-05T00:13:22.056Z,12.13
2019-02-05T00:15:48.423Z,11.93
2019-02-05T00:21:38.723Z,9.50
2019-02-05T00:24:04.995Z,11.73
2019-02-05T00:26:31.167Z,11.93
2019-02-05T00:28:57.489Z,15.63
2019-02-05T00:31:24.234Z,12.93
2019-02-05T00:33:50.834Z,10.40
2019-02-05T00:36:17.022Z,12.03
2019-02-05T00:38:43.349Z,12.70
2019-02-05T00:41:09.862Z,11.43
2019-02-05T00:43:36.208Z,13.43
2019-02-05T00:46:02.534Z,14.77
2019-02-05T00:48:28.705Z,11.03
2019-02-05T00:50:55.393Z,12.63
2019-02-05T00:53:22.304Z,13.87
2019-02-05T00:55:48.473Z,10.93
2019-02-05T00:58:14.719Z,10.33
2019-02-05T01:00:41.386Z,12.53
2019-02-05T01:03:08.034Z,11.47
2019-02-05T01:05:34.281Z,11.70
2019-02-05T01:08:01.272Z,11.97
2019-02-05T01:10:27.745Z,12.53
2019-02-05T01:12:54.957Z,12.80
2019-02-05T01:15:24.082Z,12.73
2019-02-05T01:17:50.991Z,15.13
2019-02-05T01:20:19.120Z,12.80
2019-02-05T01:22:46.112Z,10.63
2019-02-05T01:25:14.508Z,14.47
2019-02-05T01:27:41.005Z,13.30
2019-02-05T01:30:11.362Z,14.23
2019-02-05T01:32:37.980Z,11.50
2019-02-05T01:35:06.432Z,13.40
2019-02-05T01:37:32.865Z,12.60
2019-02-05T01:39:59.126Z,18.67
2019-02-05T01:42:25.410Z,15.10
2019-02-05T01:44:51.663Z,15.70
2019-02-05T01:47:18.436Z,15.73
2019-02-05T01:49:44.850Z,17.23
2019-02-05T01:52:11.233Z,16.07
2019-02-05T01:54:37.484Z,17.20
2019-02-05T02:00:30.781Z,16.27
2019-02-05T02:02:57.642Z,21.17
2019-02-05T02:05:24.086Z,18.23
2019-02-05T02:07:50.431Z,18.50
2019-02-05T02:10:23.279Z,17.80
2019-02-05T02:12:49.790Z,18.40
2019-02-05T02:15:16.134Z,19.13
2019-02-05T02:17:42.569Z,21.60
2019-02-05T02:20:12.327Z,19.40
2019-02-05T02:22:38.684Z,19.63
2019-02-05T02:25:08.074Z,20.20
2019-02-05T02:27:34.535Z,17.17
2019-02-05T02:30:01.035Z,17.17
2019-02-05T02:32:27.410Z,22.70
2019-02-05T02:34:53.869Z,17.40
2019-02-05T02:37:20.155Z,21.67
2019-02-05T02:39:46.512Z,17.80
2019-02-05T02:42:12.867Z,20.87
2019-02-05T02:44:39.135Z,21.37
2019-02-05T02:47:05.472Z,19.73
2019-02-05T02:49:32.022Z,20.40
2019-02-05T02:51:58.499Z,20.10
2019-02-05T02:54:24.807Z,18.23
2019-02-05T02:56:51.454Z,21.13
2019-02-05T02:59:18.878Z,18.77
2019-02-05T03:01:45.219Z,21.17
2019-02-05T03:04:11.949Z,22.33
2019-02-05T03:06:38.513Z,21.50
2019-02-05T03:09:14.850Z,19.80
2019-02-05T03:11:41.272Z,20.67
2019-02-05T03:14:07.775Z,20.10
2019-02-05T03:16:34.748Z,19.40
2019-02-05T03:19:01.159Z,20.90
2019-02-05T03:21:27.451Z,20.20
2019-02-05T03:23:53.851Z,21.10
2019-02-05T03:26:20.774Z,21.40
2019-02-05T03:28:47.376Z,21.30
2019-02-05T03:31:13.731Z,21.00
2019-02-05T03:33:40.021Z,21.80
2019-02-05T03:36:06.597Z,19.97
2019-02-05T03:38:33.133Z,21.10
2019-02-05T03:41:00.903Z,19.20
2019-02-05T03:43:27.143Z,19.60
2019-02-05T03:49:17.896Z,24.20
2019-02-05T03:51:47.966Z,22.57
2019-02-05T03:54:24.038Z,25.63
2019-02-05T03:57:10.734Z,25.23
2019-02-05T04:00:01.169Z,23.83
2019-02-05T04:02:46.817Z,24.70
2019-02-05T04:05:32.624Z,24.17
2019-02-05T04:08:30.480Z,26.73
2019-02-05T04:11:03.869Z,25.63
2019-02-05T04:13:46.904Z,24.90
2019-02-05T04:16:39.238Z,23.23
2019-02-05T04:19:24.713Z,24.83
2019-02-05T04:21:58.012Z,24.10
2019-02-05T04:24:46.442Z,22.60
2019-02-05T04:27:45.174Z,33.53
2019-02-05T04:30:10.354Z,27.17
2019-02-05T04:35:30.182Z,26.73
2019-02-05T04:38:09.218Z,26.53
2019-02-05T04:40:56.356Z,27.97
2019-02-05T04:43:29.907Z,23.97
2019-02-05T04:46:20.816Z,27.23
2019-02-05T04:49:07.908Z,29.70
2019-02-05T04:51:50.610Z,26.57
2019-02-05T04:54:26.604Z,25.77
2019-02-05T04:57:09.449Z,27.30
2019-02-05T05:00:08.320Z,25.20
2019-02-05T05:02:50.500Z,32.53
2019-02-05T05:05:38.796Z,25.60
2019-02-05T05:08:09.088Z,30.13
2019-02-05T05:10:35.414Z,29.37
2019-02-05T05:13:01.749Z,28.63
2019-02-05T05:15:28.398Z,30.93
2019-02-05T05:17:54.982Z,28.60
2019-02-05T05:20:21.434Z,28.47
2019-02-05T05:22:48.240Z,27.47
2019-02-05T05:28:41.690Z,29.57
2019-02-05T05:31:08.253Z,29.00
2019-02-05T05:33:34.872Z,32.87
2019-02-05T05:36:01.219Z,29.33
2019-02-05T05:38:27.426Z,29.13
2019-02-05T05:40:55.054Z,32.00
2019-02-05T05:43:21.572Z,30.33
2019-02-05T05:45:47.971Z,28.80
2019-02-05T05:48:14.437Z,35.37
2019-02-05T05:50:40.867Z,34.17
2019-02-05T05:53:07.373Z,33.23
2019-02-05T05:55:33.781Z,30.50
2019-02-05T05:58:00.265Z,31.13
2019-02-05T06:00:27.087Z,33.07
2019-02-05T06:02:53.558Z,32.70
2019-02-05T06:05:20.200Z,33.10
2019-02-05T06:07:47.438Z,34.67
2019-02-05T06:10:16.605Z,28.07
2019-02-05T06:12:43.070Z,32.90
2019-02-05T06:15:11.349Z,35.90
2019-02-05T06:17:37.795Z,30.20
2019-02-05T06:20:07.972Z,36.23
2019-02-05T06:22:34.461Z,28.67
2019-02-05T06:25:00.719Z,39.47
2019-02-05T06:27:27.335Z,36.60
2019-02-05T06:29:53.826Z,34.10
2019-02-05T06:32:20.196Z,35.53
2019-02-05T06:34:46.993Z,37.57
2019-02-05T06:37:13.404Z,33.47
2019-02-05T06:39:39.657Z,30.30
2019-02-05T06:42:10.678Z,40.10
2019-02-05T06:44:37.264Z,36.80
2019-02-05T06:47:04.167Z,33.50
2019-02-05T06:49:30.485Z,37.67
2019-02-05T06:51:57.432Z,32.37
2019-02-05T06:54:24.307Z,34.00
2019-02-05T06:56:51.545Z,37.20
2019-02-05T06:59:18.165Z,35.83
2019-02-05T07:01:44.816Z,33.03
2019-02-05T07:04:11.523Z,28.70
2019-02-05T07:06:38.136Z,35.53
2019-02-05T07:09:12.438Z,37.57
2019-02-05T07:11:38.941Z,30.27
2019-02-05T07:14:05.523Z,35.37
2019-02-05T07:16:32.126Z,32.90
2019-02-05T07:18:58.561Z,30.77
2019-02-05T07:21:24.924Z,31.67
2019-02-05T07:23:51.195Z,32.10
2019-02-05T07:26:18.002Z,31.47
2019-02-05T07:28:44.913Z,34.07
2019-02-05T07:31:11.652Z,34.40
2019-02-05T07:36:49.807Z,32.37
2019-02-05T07:39:16.661Z,31.60
2019-02-05T07:41:43.254Z,32.93
2019-02-05T07:44:09.836Z,32.03
2019-02-05T07:46:36.460Z,35.23
2019-02-05T07:49:03.994Z,33.13
2019-02-05T07:51:30.535Z,33.37
2019-02-05T07:53:57.124Z,35.47
2019-02-05T07:56:24.470Z,37.17
2019-02-05T07:58:51.664Z,37.80
2019-02-05T08:01:18.430Z,34.23
2019-02-05T08:03:48.086Z,35.40
2019-02-05T08:06:14.821Z,33.00
2019-02-05T08:08:41.598Z,35.00
2019-02-05T08:11:08.374Z,33.90
2019-02-05T08:13:34.742Z,37.80
2019-02-05T08:16:21.627Z,35.20
2019-02-05T08:18:54.389Z,37.37
2019-02-05T08:21:20.668Z,43.00
2019-02-05T08:23:50.267Z,40.33
2019-02-05T08:26:16.851Z,34.40
2019-02-05T08:28:43.536Z,38.03
2019-02-05T08:31:10.158Z,36.03
2019-02-05T08:33:36.584Z,34.33
2019-02-05T08:36:03.650Z,37.97
2019-02-05T08:38:30.046Z,35.50
2019-02-05T08:40:56.313Z,37.63
2019-02-05T08:43:22.592Z,36.63
2019-02-05T08:45:56.295Z,36.37
2019-02-05T08:48:17.560Z,37.13
2019-02-05T08:50:44.148Z,38.57
2019-02-05T08:53:10.807Z,33.80
2019-02-05T08:55:37.377Z,40.10
2019-02-05T08:58:09.891Z,34.00
2019-02-05T09:00:49.807Z,33.17
2019-02-05T09:03:22.051Z,35.60
2019-02-05T09:05:48.775Z,33.83
2019-02-05T09:08:15.441Z,35.40
2019-02-05T09:10:41.835Z,30.47
2019-02-05T09:13:09.019Z,34.13
2019-02-05T09:15:35.962Z,34.93
2019-02-05T09:18:02.718Z,34.23
2019-02-05T09:20:29.113Z,30.90
2019-02-05T09:22:55.544Z,33.93
2019-02-05T09:25:21.999Z,31.87
2019-02-05T09:27:48.744Z,34.97
2019-02-05T09:30:27.881Z,30.23
2019-02-05T09:32:56.626Z,33.80
2019-02-05T09:35:22.960Z,30.50
2019-02-05T09:37:49.468Z,33.67
2019-02-05T09:40:21.838Z,29.50
2019-02-05T09:42:48.212Z,30.70
2019-02-05T09:45:24.991Z,36.40
2019-02-05T09:47:51.856Z,28.23
2019-02-05T09:50:18.657Z,31.53
2019-02-05T09:52:45.509Z,33.23
2019-02-05T09:55:17.384Z,39.90
2019-02-05T09:57:44.158Z,30.03
2019-02-05T10:00:25.697Z,30.70
2019-02-05T10:02:52.439Z,29.73
2019-02-05T10:05:21.856Z,30.70
2019-02-05T10:07:48.468Z,31.07
2019-02-05T10:10:17.586Z,31.43
2019-02-05T10:12:46.914Z,30.10
2019-02-05T10:15:16.574Z,30.77
2019-02-05T10:17:43.058Z,28.33
2019-02-05T10:20:11.648Z,28.57
2019-02-05T10:22:38.634Z,31.30
2019-02-05T10:25:07.859Z,31.03
2019-02-05T10:27:34.339Z,30.80
2019-02-05T10:30:00.806Z,33.90
2019-02-05T10:32:27.590Z,29.10
2019-02-05T10:34:53.980Z,33.17
2019-02-05T10:37:20.500Z,28.50
2019-02-05T10:39:46.802Z,25.80
2019-02-05T10:42:13.708Z,24.70
2019-02-05T10:44:40.531Z,25.60
2019-02-05T10:47:07.426Z,25.87
2019-02-05T10:49:33.657Z,28.27
2019-02-05T10:52:00.102Z,28.00
2019-02-05T10:54:26.589Z,27.20
2019-02-05T10:56:53.196Z,21.90
2019-02-05T10:59:19.664Z,22.27
2019-02-05T11:01:46.093Z,22.07
2019-02-05T11:04:12.775Z,25.50
2019-02-05T11:06:39.131Z,22.63
2019-02-05T11:09:07.989Z,20.73
2019-02-05T11:11:34.490Z,21.33
2019-02-05T11:14:00.864Z,21.93
2019-02-05T11:16:27.192Z,19.27
2019-02-05T11:18:53.656Z,20.57
2019-02-05T11:21:20.244Z,24.30
2019-02-05T11:23:46.893Z,20.60
2019-02-05T11:26:13.777Z,23.27
2019-02-05T11:28:39.961Z,21.30
2019-02-05T11:31:06.665Z,18.00
2019-02-05T11:33:33.216Z,18.03
2019-02-05T11:35:59.486Z,19.57
2019-02-05T11:38:25.782Z,21.50
2019-02-05T11:40:52.494Z,25.20
2019-02-05T11:43:18.831Z,21.20
2019-02-05T11:45:45.437Z,23.10
2019-02-05T11:48:14.101Z,21.33
2019-02-05T11:50:40.616Z,24.63
2019-02-05T11:53:07.040Z,23.93
2019-02-05T11:55:34.143Z,23.47
2019-02-05T11:58:00.749Z,22.07
2019-02-05T12:00:33.151Z,21.73
2019-02-05T12:03:00.270Z,29.27
2019-02-05T12:05:27.122Z,21.30
2019-02-05T12:07:54.193Z,20.90
2019-02-05T12:10:20.525Z,21.60
2019-02-05T12:12:47.002Z,22.57
2019-02-05T12:15:15.440Z,26.13
2019-02-05T12:17:41.997Z,24.33
2019-02-05T12:20:11.663Z,24.27
2019-02-05T12:22:38.535Z,22.53
2019-02-05T12:25:14.583Z,24.07
2019-02-05T12:27:41.178Z,20.00
2019-02-05T12:30:17.038Z,23.47
2019-02-05T12:32:43.456Z,22.77
2019-02-05T12:35:09.834Z,21.50
2019-02-05T12:37:36.271Z,17.80
2019-02-05T12:40:06.185Z,20.07
2019-02-05T12:42:32.534Z,20.77
2019-02-05T12:44:59.357Z,26.07
2019-02-05T12:47:25.656Z,46.73
2019-02-05T12:49:52.046Z,27.23
2019-02-05T12:52:18.520Z,24.90
2019-02-05T12:54:44.747Z,21.97
2019-02-05T12:57:11.178Z,23.07
2019-02-05T12:59:37.502Z,16.10
2019-02-05T13:02:04.299Z,19.30
2019-02-05T13:04:30.833Z,20.50
2019-02-05T13:06:58.717Z,20.30
2019-02-05T13:09:25.008Z,18.77
2019-02-05T13:11:51.433Z,19.90
2019-02-05T13:14:17.646Z,14.30
2019-02-05T13:16:44.440Z,16.33
2019-02-05T13:19:10.911Z,15.90
2019-02-05T13:21:37.339Z,15.30
2019-02-05T13:24:04.347Z,18.57
2019-02-05T13:26:30.739Z,21.63
2019-02-05T13:28:57.021Z,16.83
2019-02-05T13:31:23.383Z,16.27
2019-02-05T13:33:49.750Z,20.23
2019-02-05T13:36:16.126Z,16.13
2019-02-05T13:38:42.462Z,19.90
2019-02-05T13:41:08.671Z,23.10
2019-02-05T13:43:35.210Z,17.90
2019-02-05T13:46:01.797Z,27.13
2019-02-05T13:48:28.063Z,19.03
2019-02-05T13:50:54.372Z,22.40
2019-02-05T13:53:20.744Z,15.57
2019-02-05T13:55:47.041Z,18.23
2019-02-05T13:58:13.967Z,20.57
2019-02-05T14:00:46.576Z,17.53
2019-02-05T14:03:12.908Z,15.50
2019-02-05T14:05:39.329Z,16.47
2019-02-05T14:08:06.277Z,15.37
2019-02-05T14:10:35.021Z,13.97
2019-02-05T14:13:01.501Z,15.20
2019-02-05T14:15:30.720Z,15.83
2019-02-05T14:17:57.239Z,24.03
2019-02-05T14:20:23.966Z,15.23
2019-02-05T14:22:50.283Z,15.80
2019-02-05T14:25:16.949Z,14.77
2019-02-05T14:27:43.488Z,16.23
2019-02-05T14:30:13.799Z,17.10
2019-02-05T14:32:40.196Z,20.53
2019-02-05T14:35:08.521Z,19.40
2019-02-05T14:37:35.236Z,18.10
2019-02-05T14:40:01.815Z,16.13
2019-02-05T14:42:28.357Z,15.50
2019-02-05T14:44:54.663Z,15.30
2019-02-05T14:47:21.127Z,14.50
2019-02-05T14:49:47.493Z,12.73
2019-02-05T14:52:13.824Z,15.87
2019-02-05T14:54:39.974Z,16.70
2019-02-05T14:57:06.576Z,15.63
2019-02-05T14:59:32.816Z,21.77
2019-02-05T15:05:23.575Z,17.63
2019-02-05T15:07:49.806Z,18.47
2019-02-05T15:10:17.981Z,16.70
2019-02-05T15:12:44.306Z,16.67
2019-02-05T15:15:13.617Z,21.40
2019-02-05T15:17:39.845Z,16.70
2019-02-05T15:20:10.470Z,18.93
2019-02-05T15:22:36.932Z,15.53
2019-02-05T15:25:07.359Z,18.10
2019-02-05T15:27:33.795Z,16.83
2019-02-05T15:30:00.336Z,19.03
2019-02-05T15:32:31.338Z,15.93
2019-02-05T15:34:58.116Z,21.33
2019-02-05T15:37:24.410Z,17.40
2019-02-05T15:39:50.558Z,16.73
2019-02-05T15:42:16.790Z,17.20
2019-02-05T15:44:43.095Z,16.10
2019-02-05T15:47:09.535Z,17.63
2019-02-05T15:49:35.870Z,17.40
2019-02-05T15:52:02.382Z,22.23
2019-02-05T15:54:31.039Z,13.13
2019-02-05T15:56:57.346Z,18.90
2019-02-05T15:59:23.651Z,15.93
2019-02-05T16:01:50.237Z,18.63
2019-02-05T16:04:16.650Z,18.23
2019-02-05T16:06:43.229Z,38.07
2019-02-05T16:09:10.115Z,27.70
2019-02-05T16:11:36.829Z,16.13
2019-02-05T16:14:04.034Z,15.93
2019-02-05T16:16:30.457Z,23.23
2019-02-05T16:18:57.064Z,23.93
2019-02-05T16:21:23.558Z,17.80
2019-02-05T16:23:52.930Z,22.63
2019-02-05T16:26:34.167Z,20.87
2019-02-05T16:29:06.861Z,14.20
2019-02-05T16:31:33.386Z,16.93
2019-02-05T16:33:59.746Z,13.70
2019-02-05T16:36:26.064Z,16.77
2019-02-05T16:38:52.242Z,19.00
2019-02-05T16:41:18.542Z,13.23
2019-02-05T16:43:44.818Z,15.40
2019-02-05T16:46:11.238Z,10.27
2019-02-05T16:48:38.233Z,14.63
2019-02-05T16:51:04.686Z,14.60
2019-02-05T16:53:30.960Z,18.03
2019-02-05T16:55:57.436Z,17.40
2019-02-05T16:58:23.923Z,15.60
2019-02-05T17:00:50.257Z,14.67
2019-02-05T17:03:16.522Z,19.80
2019-02-05T17:05:43.246Z,12.83
2019-02-05T17:08:09.798Z,17.17
2019-02-05T17:10:36.065Z,13.03
2019-02-05T17:13:03.406Z,20.83
2019-02-05T17:15:29.674Z,12.93
2019-02-05T17:21:19.937Z,22.87
2019-02-05T17:23:46.522Z,22.10
2019-02-05T17:26:13.014Z,24.90
2019-02-05T17:28:39.337Z,24.37
2019-02-05T17:31:06.470Z,18.93
2019-02-05T17:33:32.775Z,15.67
2019-02-05T17:35:59.589Z,15.63
2019-02-05T17:38:26.362Z,14.47
2019-02-05T17:40:54.670Z,25.03
2019-02-05T17:43:21.425Z,16.57
2019-02-05T17:45:47.909Z,23.13
2019-02-05T17:48:15.371Z,22.00
2019-02-05T17:50:42.354Z,19.57
2019-02-05T17:53:09.203Z,18.77
2019-02-05T17:55:35.819Z,15.30
2019-02-05T17:58:02.742Z,23.33
2019-02-05T18:03:41.481Z,22.00
2019-02-05T18:06:08.040Z,19.93
2019-02-05T18:08:41.031Z,14.20
2019-02-05T18:11:17.885Z,16.93
2019-02-05T18:16:57.783Z,19.33
2019-02-05T18:19:24.703Z,19.00
2019-02-05T18:21:51.507Z,22.70
2019-02-05T18:24:17.937Z,22.87
2019-02-05T18:30:31.597Z,15.10
2019-02-05T18:33:05.527Z,18.93
2019-02-05T18:39:06.852Z,23.40
2019-02-05T18:44:48.238Z,21.00
2019-02-05T18:47:14.786Z,20.80
2019-02-05T18:49:41.434Z,19.53
2019-02-05T18:55:45.720Z,18.20
2019-02-05T19:01:36.675Z,16.67
2019-02-05T19:07:14.641Z,15.87
2019-02-05T19:09:47.241Z,16.07
2019-02-05T19:12:17.318Z,17.17
2019-02-05T19:14:44.546Z,22.10
2019-02-05T19:20:34.694Z,17.97
2019-02-05T19:26:26.571Z,15.70
2019-02-05T19:32:05.067Z,17.20
2019-02-05T19:34:31.894Z,19.23
2019-02-05T19:40:21.289Z,21.73
2019-02-05T19:42:48.177Z,16.37
2019-02-05T19:45:16.921Z,18.17
2019-02-05T19:47:43.352Z,20.80
2019-02-05T19:50:09.777Z,19.97
2019-02-05T19:56:00.629Z,17.10
2019-02-05T20:01:38.968Z,13.40
2019-02-05T20:04:05.910Z,12.20
2019-02-05T20:06:32.209Z,14.77
2019-02-05T20:08:58.797Z,18.00
2019-02-05T20:11:25.535Z,15.07
2019-02-05T20:17:28.194Z,13.77
2019-02-05T20:19:54.949Z,17.83
2019-02-05T20:22:21.778Z,21.40
2019-02-05T20:24:48.274Z,18.37
2019-02-05T20:27:15.124Z,17.70
2019-02-05T20:33:17.086Z,13.07
2019-02-05T20:42:12.156Z,14.63
2019-02-05T20:44:38.850Z,22.30
2019-02-05T20:50:28.573Z,19.37
2019-02-05T20:52:55.225Z,20.73
2019-02-05T20:55:23.191Z,18.83
2019-02-05T20:57:49.584Z,17.17
2019-02-05T21:00:24.866Z,15.07
2019-02-05T21:02:51.206Z,16.73
2019-02-05T21:05:18.716Z,15.47
2019-02-05T21:11:08.879Z,15.97
2019-02-05T21:13:35.095Z,15.17
2019-02-05T21:16:01.850Z,16.60
2019-02-05T21:22:03.715Z,12.90
2019-02-05T21:24:30.009Z,17.10
2019-02-05T21:30:31.148Z,22.10
2019-02-05T21:32:57.359Z,15.80
2019-02-05T21:38:47.133Z,17.30
2019-02-05T21:41:13.512Z,14.53
2019-02-05T21:46:51.601Z,15.90
2019-02-05T21:49:18.256Z,18.87
2019-02-05T21:51:47.252Z,16.40
2019-02-05T21:54:13.684Z,49.90
2019-02-05T21:56:40.052Z,41.03
2019-02-05T21:59:06.659Z,32.00
2019-02-05T22:01:36.132Z,18.97
2019-02-05T22:04:02.870Z,24.83
2019-02-05T22:06:29.284Z,18.80
2019-02-05T22:08:56.062Z,20.37
2019-02-05T22:11:22.377Z,27.47
2019-02-05T22:13:49.135Z,15.27
2019-02-05T22:16:15.442Z,18.77
2019-02-05T22:18:42.570Z,23.67
2019-02-05T22:21:09.454Z,23.93
2019-02-05T22:23:35.856Z,21.37
2019-02-05T22:26:02.319Z,18.23
2019-02-05T22:28:28.902Z,23.03
2019-02-05T22:30:55.625Z,18.23
2019-02-05T22:33:22.095Z,22.30
2019-02-05T22:35:48.682Z,21.93
2019-02-05T22:38:15.236Z,20.70
2019-02-05T22:40:41.676Z,27.23
2019-02-05T22:43:08.481Z,28.80
2019-02-05T22:45:35.024Z,26.40
2019-02-05T22:48:01.518Z,20.73
2019-02-05T22:50:48.875Z,17.80
2019-02-05T22:53:14.982Z,30.97
2019-02-05T22:55:44.979Z,27.80
2019-02-05T22:58:11.643Z,22.23
2019-02-05T23:00:48.211Z,28.97
2019-02-05T23:03:15.917Z,21.30
2019-02-05T23:05:49.367Z,27.80
2019-02-05T23:08:15.814Z,22.47
2019-02-05T23:10:45.983Z,25.17
2019-02-05T23:13:12.569Z,31.23
2019-02-05T23:15:39.272Z,27.17
2019-02-05T23:18:06.241Z,23.17
2019-02-05T23:20:32.836Z,29.30
2019-02-05T23:22:59.917Z,23.77
2019-02-05T23:25:26.385Z,31.00
2019-02-05T23:27:53.032Z,32.97
2019-02-05T23:30:20.785Z,30.67
2019-02-05T23:32:47.082Z,34.97
2019-02-05T23:35:13.764Z,34.83
2019-02-05T23:37:40.677Z,32.63
2019-02-05T23:40:31.992Z,39.70
2019-02-05T23:42:58.360Z,50.00
2019-02-05T23:45:24.769Z,40.43
2019-02-05T23:47:51.182Z,46.77
2019-02-05T23:50:17.591Z,48.40
2019-02-05T23:52:44.681Z,50.67
2019-02-05T23:55:12.601Z,56.37
2019-02-05T23:57:39.187Z,51.47
